Tiempo atmosférico en la estación meteorológica de Barbadillo, Salamanca (817 m.)



Fecha
DESCASC
Temp. máxima en grados centígrados (hora)
DESCASC
Temp. mínima en grados centígrados (hora)
DESCASC
Temp. media en grados centígrados
DESCASC
Racha de viento máxima en m/sg (hora)
DESCASC
Velocidad máxima media en intervalos de 10 minutos(hora)
DESCASC
Precipitaciones diarias en mm
DESCASC
Precipitaciones de 00:00 a 06:00 en mm
DESCASC
Precipitaciones de 06:00 a 12:00 en mm
DESCASC
Precipitaciones de 12:00 a 18:00 en mm
DESCASC
Precipitaciones de 18:00 a 24:00 en mm
DESCASC
25-02-2021 13.3 (16:50) 3.8 (04:00) 8.6 7.22 (18:50) 4.17 (09:00) 0 0 0 0 0
24-02-2021 16.1 (15:50) -2.2 (08:00) 7 10.83 (15:30) 7.22 (16:00) 0 0 0 0 0
23-02-2021 14.5 (16:10) -3.6 (08:20) 5.5 7.78 (15:00) 5 (14:10) 0 0 0 0 0
22-02-2021 10.7 (17:50) -1 (23:59) 4.8 7.22 (16:00) 4.44 (03:20) 0 0 0 0 0
21-02-2021 13.3 (04:50) 2.8 (00:00) 8.1 19.44 (04:50) 12.22 (04:50) 7 0 2.6 4.2 0.2
20-02-2021 13.2 (16:10) 8 (00:00) 10.6 19.17 (15:50) 11.94 (14:30) 0 0 0 0 0
19-02-2021 13.9 (13:10) 6.4 (00:00) 10.1 12.78 (12:10) 8.33 (11:30) 0 0 0 0 0
18-02-2021 13.5 (13:20) 7.4 (00:00) 10.5 14.72 (15:10) 9.17 (13:20) 0 0 0 0 0
17-02-2021 14.6 (16:40) 6.7 (00:00) 10.7 9.44 (22:40) 6.39 (22:40) 0 0 0 0 0
16-02-2021 13.8 (14:40) 7.5 (00:00) 10.7 12.5 (14:50) 7.22 (11:50) 0 0 0 0 0
15-02-2021 18 (15:10) -0.6 (-00:0) 8.7 8.33 (18:10) 5.56 (17:30) 0 0 0 0 0
14-02-2021 17.6 (15:20) 0 (00:00) 8.8 8.61 (13:50) 4.17 (15:30) 0 0 0 0 0
13-02-2021 13.7 (15:30) 1.7 (00:00) 7.7 7.22 (11:30) 4.72 (11:40) 0 0 0 0 0
12-02-2021 12.1 (16:50) 5.2 (00:00) 8.7 13.33 (11:50) 7.22 (04:40) 6.6 6.4 0.2 0 0
11-02-2021 13.6 (14:50) 8.4 (00:00) 11 11.39 (23:50) 7.5 (23:50) 0 0 0 0 0
10-02-2021 11.4 (16:10) 5.1 (00:00) 8.2 17.22 (04:30) 10 (04:30) 6.6 6.6 0 0 0
09-02-2021 7.6 (16:30) 3.3 (00:00) 5.4 15.28 (12:10) 8.89 (12:10) 17 0.6 7.2 7.6 1.6
08-02-2021 8 (14:00) 4.5 (00:00) 6.3 16.67 (16:00) 10 (16:00) 8.8 7.4 0.6 0.4 0.4
07-02-2021 6.3 (13:30) 1.8 (00:00) 4.1 13.89 (21:50) 8.33 (23:10) 1.6 0 0 1 0.6
06-02-2021 8.3 (13:20) 5 (00:00) 6.7 10.28 (17:20) 5.56 (19:30) 3.4 0.6 2.6 0.2 0
05-02-2021 11.3 (14:20) 5.2 (00:00) 8.3 7.78 (05:00) 5.28 (05:00) 15.2 2 2.6 9.2 1.4
04-02-2021 8.2 (00:00) 5.4 (00:00) 6.8 8.89 (19:20) 5.83 (19:10) 23.4 0 8.6 12.2 2.6
03-02-2021 11.4 (11:30) 8.2 (00:00) 9.8 16.39 (05:50) 9.17 (02:00) 3.8 0 0.2 1.8 1.8
02-02-2021 12.5 (14:50) 8.5 (22:40) 10.5 13.61 (23:59) 9.72 (23:59) 0.4 0.2 0 0.2 0
01-02-2021 12.5 (16:50) 6.9 (00:00) 9.7 13.89 (13:40) 8.61 (13:30) 0 0 0 0 0
31-01-2021 12.8 (17:30) 5.7 (00:00) 9.3 14.44 (00:10) 8.89 (23:20) 0.4 0 0.2 0.2 0
30-01-2021 10.1 (01:40) 5.7 (00:00) 7.9 16.67 (15:10) 10.83 (13:00) 7.2 5.6 0.6 0 1
29-01-2021 16.4 (16:30) 7.2 (00:00) 11.8 10.56 (23:20) 6.67 (23:10) 0 0 0 0 0
28-01-2021 18.4 (16:50) 4.5 (00:00) 11.4 7.78 (14:50) 5.56 (16:00) 0 0 0 0 0

Gráficas

Temp. máximas Temp. mínimas Temp. medias Precipitaciones Rachas de viento máximas Velocidades máximas media en intervalos de 10 minutos

Datos horarios

Fecha y hora oficial Temperatura (ºC) Velocidad del viento (km/h) Dirección del viento Racha (km/h) Dirección de racha Precipitación (mm) Presión (hPa) Tendencia (hPa) Humedad (%)
2021-02-26 23:00:00 5.2 0 Calma 6 Sur 0 -- -- 87
2021-02-26 22:00:00 6.6 3 Sudeste 4 Sur 0 -- -- 87
2021-02-26 21:00:00 8.1 4 Sur 5 Sur 0 -- -- 83
2021-02-26 20:00:00 10.1 0 Calma 7 Nordeste 0 -- -- 75
2021-02-26 19:00:00 11.8 5 Nordeste 18 Nordeste 0 -- -- 72
2021-02-26 18:00:00 13.4 13 Nordeste 23 Nordeste 0 -- -- 65
2021-02-26 17:00:00 14.4 11 Nordeste 23 Nordeste 0 -- -- 62
2021-02-26 16:00:00 15 10 Este 17 Este 0 -- -- 52
2021-02-26 15:00:00 14.7 8 Nordeste 18 Nordeste 0 -- -- 59
2021-02-26 14:00:00 13.5 10 Este 19 Este 0 -- -- 61
2021-02-26 13:00:00 12.2 13 Este 21 Este 0 -- -- 68
2021-02-26 12:00:00 10.8 13 Este 23 Este 0 -- -- 73
2021-02-26 11:00:00 9.3 15 Este 24 Este 0 -- -- 78
2021-02-26 10:00:00 8.6 12 Este 21 Nordeste 0 -- -- 81
2021-02-26 09:00:00 6.9 5 Este 16 Nordeste 0 -- -- 90
2021-02-26 08:00:00 5.5 3 Oeste 15 Nordeste 0 -- -- 89
2021-02-26 07:00:00 4.9 5 Nordeste 9 Nordeste 0 -- -- 91
2021-02-26 06:00:00 6.5 5 Este 19 Este 0 -- -- 88
2021-02-26 05:00:00 7.3 13 Este 19 Este 0 -- -- 87
2021-02-26 04:00:00 7.9 3 Este 10 Este 0 -- -- 81
2021-02-26 03:00:00 8.6 6 Este 18 Este 0 -- -- 80
2021-02-26 02:00:00 8.7 13 Este 19 Este 0 -- -- 80
2021-02-26 01:00:00 8.4 10 Este 16 Este 0 -- -- 80
2021-02-26 00:00:00 8.6 12 Este 19 Este 0 -- -- 80
2021-02-25 23:00:00 8.9 11 Este 15 Nordeste 0 -- -- 83
2021-02-25 22:00:00 9.5 4 Norte 7 Norte 0 -- -- 80
2021-02-25 21:00:00 10.3 5 Nordeste 10 Nordeste 0 -- -- 77
2021-02-25 20:00:00 10.9 8 Nordeste 17 Nordeste 0 -- -- 74
2021-02-25 19:00:00 11.6 12 Nordeste 26 Nordeste 0 -- -- 69
2021-02-25 18:00:00 12.8 5 Norte 12 Nordeste 0 -- -- 64
2021-02-25 17:00:00 13.2 4 Norte 12 Norte 0 -- -- 62
2021-02-25 16:00:00 12.6 6 Norte 18 Norte 0 -- -- 70
2021-02-25 15:00:00 11.9 10 Norte 17 Norte 0 -- -- 72
2021-02-25 14:00:00 11.8 4 Norte 12 Norte 0 -- -- 70
2021-02-25 13:00:00 12.4 5 Sur 17 Sudeste 0 -- -- 64
2021-02-25 12:00:00 12.1 13 Sudeste 19 Sudeste 0 -- -- 65
2021-02-25 11:00:00 10.6 4 Sudeste 13 Noroeste 0 -- -- 72
2021-02-25 10:00:00 8.7 9 Noroeste 19 Sudeste 0 -- -- 81
2021-02-25 09:00:00 7.8 15 Sudeste 21 Sudeste 0 -- -- 84
2021-02-25 08:00:00 6.3 10 Sudeste 13 Sur 0 -- -- 92
2021-02-25 07:00:00 5 0 Calma 5 Sudeste 0 -- -- 93
2021-02-25 06:00:00 4.3 2 Sudoeste 7 Sur 0 -- -- 93
2021-02-25 05:00:00 4 4 Sur 9 Sur 0 -- -- 92
2021-02-25 04:00:00 3.8 5 Sur 10 Sudoeste 0 -- -- 92
2021-02-25 03:00:00 4.7 4 Sur 7 Sudoeste 0 -- -- 90
2021-02-25 02:00:00 5.5 6 Sur 9 Sur 0 -- -- 90
2021-02-25 01:00:00 5.4 3 Sur 12 Sudoeste 0 -- -- 90
2021-02-25 00:00:00 4.8 0 Calma 8 Este 0 -- -- 85
2021-02-24 23:00:00 5.9 6 Este 9 Este 0 -- -- 84
2021-02-24 22:00:00 7.6 4 Sur 13 Sur 0 -- -- 78
2021-02-24 21:00:00 7.8 4 Sur 12 Sur 0 -- -- 75
2021-02-24 20:00:00 10.3 8 Sudeste 15 Sur 0 -- -- 66
2021-02-24 19:00:00 12.8 12 Sudoeste 28 Sudoeste 0 -- -- 56
2021-02-24 18:00:00 14.9 19 Sudoeste 32 Sur 0 -- -- 48
2021-02-24 17:00:00 15.7 17 Sudoeste 37 Sudoeste 0 -- -- 48
2021-02-24 16:00:00 15.9 26 Sudoeste 39 Sur 0 -- -- 43
2021-02-24 15:00:00 15.6 23 Sudoeste 34 Sur 0 -- -- 47
2021-02-24 14:00:00 15.8 20 Sudoeste 29 Sur 0 -- -- 46
2021-02-24 13:00:00 14.1 3 Sudeste 10 Este 0 -- -- 51
2021-02-24 12:00:00 11.4 5 Norte 9 Norte 0 -- -- 55
2021-02-24 11:00:00 8.1 4 Nordeste 6 Nordeste 0 -- -- 78
2021-02-24 10:00:00 3.2 0 Calma 4 Este 0 -- -- 89
2021-02-24 09:00:00 -0.8 3 Sur 7 Sur 0 -- -- 95
2021-02-24 08:00:00 -2.2 2 Sur 7 Sudoeste 0 -- -- 93
2021-02-24 07:00:00 -1.7 4 Sudoeste 9 Sur 0 -- -- 93
2021-02-24 06:00:00 -1.8 5 Sur 8 Sudoeste 0 -- -- 92
2021-02-24 05:00:00 -1.4 6 Sur 8 Sur 0 -- -- 92
2021-02-24 04:00:00 -0.9 3 Sur 6 Sudeste 0 -- -- 90
2021-02-24 03:00:00 -0.3 5 Sudeste 9 Sudoeste 0 -- -- 92
2021-02-24 02:00:00 -0.1 4 Sur 6 Sur 0 -- -- 90
2021-02-24 01:00:00 0.4 4 Sur 6 Sudeste 0 -- -- 86
2021-02-24 00:00:00 1.6 0 Calma 8 Sur 0 -- -- 86
2021-02-23 23:00:00 1.6 5 Sudoeste 6 Sudoeste 0 -- -- 85
2021-02-23 22:00:00 3.6 2 Sudeste 4 Este 0 -- -- 79
2021-02-23 21:00:00 5.7 0 Calma 8 Sur 0 -- -- 73
2021-02-23 20:00:00 8.4 4 Sur 8 Sur 0 -- -- 64
2021-02-23 19:00:00 11.8 7 Sur 14 Sudoeste 0 -- -- 51
2021-02-23 18:00:00 13.6 11 Sudoeste 19 Sudoeste 0 -- -- 44
2021-02-23 17:00:00 14.2 12 Sudoeste 21 Sur 0 -- -- 40
2021-02-23 16:00:00 14.3 12 Sudoeste 27 Sur 0 -- -- 34
2021-02-23 15:00:00 13.4 17 Sur 28 Sur 0 -- -- 33
2021-02-23 14:00:00 13.1 17 Sudoeste 26 Sur 0 -- -- 32
2021-02-23 13:00:00 12.4 9 Sur 18 Sur 0 -- -- 40
2021-02-23 12:00:00 11 10 Sudeste 21 Sur 0 -- -- 48
2021-02-23 11:00:00 8.7 11 Sudeste 18 Sudeste 0 -- -- 62
2021-02-23 10:00:00 3.7 4 Este 10 Sudeste 0 -- -- 83
2021-02-23 09:00:00 -1.7 0 Calma 5 Sur 0 -- -- 95
2021-02-23 08:00:00 -3.5 0 Calma 5 Este 0 -- -- 93
2021-02-23 07:00:00 -3.2 3 Sudeste 4 Este 0 -- -- 93
2021-02-23 06:00:00 -3 0 Calma 4 Sur 0 -- -- 92
2021-02-23 05:00:00 -2.5 3 Este 4 Nordeste 0 -- -- 93
2021-02-23 04:00:00 -2.3 0 Calma 5 Este 0 -- -- 92
2021-02-23 03:00:00 -1.9 0 Calma 4 Sudoeste 0 -- -- 91
2021-02-23 02:00:00 -1.5 3 Sur 5 Sur 0 -- -- 92
2021-02-23 01:00:00 -1.5 2 Noroeste 6 Oeste 0 -- -- 89
2021-02-23 00:00:00 -1 3 Sur 6 Sur 0 -- -- 87
2021-02-22 23:00:00 -0.1 3 Sur 8 Sur 0 -- -- 87
2021-02-22 22:00:00 0.8 3 Sur 7 Sur 0 -- -- 82
2021-02-22 21:00:00 2.2 4 Sur 7 Sur 0 -- -- 81
2021-02-22 20:00:00 4.7 6 Sur 8 Sur 0 -- -- 75
2021-02-22 19:00:00 9.5 3 Oeste 12 Oeste 0 -- -- 47
2021-02-22 18:00:00 10.7 5 Oeste 13 Oeste 0 -- -- 44
2021-02-22 17:00:00 10.6 6 Oeste 19 Oeste 0 -- -- 43
2021-02-22 16:00:00 10 14 Oeste 26 Sudoeste 0 -- -- 53
2021-02-22 15:00:00 9.2 10 Oeste 22 Oeste 0 -- -- 54
2021-02-22 14:00:00 8.1 8 Oeste 16 Oeste 0 -- -- 60
2021-02-22 13:00:00 6.8 8 Oeste 17 Noroeste 0 -- -- 65
2021-02-22 12:00:00 5.5 9 Oeste 20 Oeste 0 -- -- 67
2021-02-22 11:00:00 4.2 12 Sudoeste 22 Oeste 0 -- -- 82
2021-02-22 10:00:00 3.1 10 Oeste 17 Sudoeste 0 -- -- 91
2021-02-22 09:00:00 0.8 6 Sudoeste 13 Sudoeste 0 -- -- 96
2021-02-22 08:00:00 0.2 9 Sudoeste 14 Oeste 0 -- -- 95
2021-02-22 07:00:00 0.8 9 Sudoeste 20 Oeste 0 -- -- 95
2021-02-22 06:00:00 1.2 13 Oeste 21 Oeste 0 -- -- 95
2021-02-22 05:00:00 1.5 10 Sudoeste 19 Sudoeste 0 -- -- 93
2021-02-22 04:00:00 2.3 12 Oeste 25 Oeste 0 -- -- 92
2021-02-22 03:00:00 3.1 12 Oeste 21 Oeste 0 -- -- 92
2021-02-22 02:00:00 3.3 14 Oeste 21 Oeste 0 -- -- 90
2021-02-22 01:00:00 3.8 12 Oeste 21 Oeste 0 -- -- 86
2021-02-22 00:00:00 4.2 11 Oeste 22 Oeste 0 -- -- 86
2021-02-21 23:00:00 4.6 11 Oeste 21 Oeste 0 -- -- 86
2021-02-21 22:00:00 4.8 10 Oeste 28 Oeste 0 -- -- 85
2021-02-21 21:00:00 4.8 13 Oeste 20 Oeste 0 -- -- 85
2021-02-21 20:00:00 4.8 11 Oeste 18 Oeste 0 -- -- 86
2021-02-21 19:00:00 4.8 7 Oeste 14 Sudoeste 0.2 -- -- 92
2021-02-21 18:00:00 4.8 8 Oeste 19 Oeste 0 -- -- 91
2021-02-21 17:00:00 4.5 10 Oeste 22 Oeste 0.4 -- -- 94
2021-02-21 16:00:00 3.5 9 Sudoeste 23 Oeste 1.2 -- -- 93
2021-02-21 15:00:00 3.7 8 Sudoeste 14 Sudoeste 1.4 -- -- 93
2021-02-21 14:00:00 3.2 8 Sudoeste 19 Sudoeste 0.8 -- -- 93
2021-02-21 13:00:00 2.8 15 Sudoeste 25 Sudoeste 0.4 -- -- 92
2021-02-21 12:00:00 3.8 17 Sudoeste 27 Sudoeste 1.2 -- -- 91
2021-02-21 11:00:00 4.6 19 Oeste 44 Oeste 0.6 -- -- 90
2021-02-21 10:00:00 8.4 10 Sudoeste 18 Sudeste 0.8 -- -- 86
2021-02-21 09:00:00 8.7 8 Sudoeste 23 Sudeste 0 -- -- 79
2021-02-21 08:00:00 9 10 Sudeste 36 Sudeste 0 -- -- 73
2021-02-21 07:00:00 10.3 22 Sur 48 Sur 0 -- -- 62
2021-02-21 06:00:00 11.9 23 Sur 70 Sur 0 -- -- 42
2021-02-21 05:00:00 13.1 42 Sur 70 Sur 0 -- -- 34
2021-02-21 04:00:00 9.5 10 Sudeste 22 Sudeste 0 -- -- 45
2021-02-21 03:00:00 9.4 8 Sudeste 18 Sudeste 0 -- -- 47
2021-02-21 02:00:00 11.5 17 Sudeste 33 Sur 0 -- -- 40
2021-02-21 01:00:00 11.1 11 Sudoeste 25 Sur 0 -- -- 40
2021-02-21 00:00:00 10.1 7 Sudoeste 21 Sur 0 -- -- 40
2021-02-20 23:00:00 11.3 15 Sur 32 Sur 0 -- -- 36
2021-02-20 22:00:00 9.7 15 Sur 31 Sur 0 -- -- 45
2021-02-20 21:00:00 10.7 13 Sur 29 Sur 0 -- -- 45
2021-02-20 20:00:00 11.8 19 Sur 44 Sur 0 -- -- 42
2021-02-20 19:00:00 12.2 26 Sur 56 Sur 0 -- -- 43
2021-02-20 18:00:00 12.5 25 Sur 46 Sur 0 -- -- 43
2021-02-20 17:00:00 12.9 32 Sur 57 Sur 0 -- -- 45
2021-02-20 16:00:00 12.9 35 Sur 69 Sur 0 -- -- 44
2021-02-20 15:00:00 12.9 33 Sur 60 Sur 0 -- -- 42
2021-02-20 14:00:00 12 40 Sur 58 Sur 0 -- -- 48
2021-02-20 13:00:00 11.5 32 Sudoeste 51 Sur 0 -- -- 53
2021-02-20 12:00:00 10.7 29 Sur 53 Sur 0 -- -- 59
2021-02-20 11:00:00 9.6 38 Sur 59 Sur 0 -- -- 68
2021-02-20 10:00:00 8.7 35 Sur 57 Sur 0 -- -- 74
2021-02-20 09:00:00 8.1 18 Sudoeste 37 Sudoeste 0 -- -- 72
2021-02-20 08:00:00 8.2 24 Sur 35 Sur 0 -- -- 70
2021-02-20 07:00:00 8.3 22 Sudoeste 36 Sur 0 -- -- 72
2021-02-20 06:00:00 8.7 22 Sur 37 Sudoeste 0 -- -- 71
2021-02-20 05:00:00 8.8 12 Sudoeste 40 Sudoeste 0 -- -- 64
2021-02-20 04:00:00 8.9 5 Sudoeste 21 Sur 0 -- -- 63
2021-02-20 03:00:00 9.7 17 Sudoeste 45 Sur 0 -- -- 62
2021-02-20 02:00:00 10 31 Sur 44 Sur 0 -- -- 63
2021-02-20 01:00:00 9.2 24 Sur 36 Sur 0 -- -- 74
2021-02-20 00:00:00 8.6 17 Sudoeste 30 Sudoeste 0 -- -- 68
2021-02-19 23:00:00 8.6 17 Sudoeste 27 Sudoeste 0 -- -- 72
2021-02-19 22:00:00 9 17 Sur 28 Sur 0 -- -- 73
2021-02-19 21:00:00 9.1 15 Sur 25 Sur 0 -- -- 72
2021-02-19 20:00:00 9.8 18 Sur 29 Sur 0 -- -- 69
2021-02-19 19:00:00 11.1 19 Sudoeste 35 Sudoeste 0 -- -- 59
2021-02-19 18:00:00 12 21 Sur 33 Sur 0 -- -- 60
2021-02-19 17:00:00 12.1 23 Sudoeste 43 Sur 0 -- -- 57
2021-02-19 16:00:00 13.2 20 Sudoeste 38 Sur 0 -- -- 49
2021-02-19 15:00:00 12.9 24 Sudoeste 46 Sudoeste 0 -- -- 43
2021-02-19 14:00:00 13.5 24 Sudoeste 39 Sur 0 -- -- 44
2021-02-19 13:00:00 13.8 28 Sudoeste 46 Sudoeste 0 -- -- 48
2021-02-19 12:00:00 12.2 25 Sur 44 Sudoeste 0 -- -- 57
2021-02-19 11:00:00 10.9 26 Sur 37 Sur 0 -- -- 61
2021-02-19 10:00:00 9.3 10 Sur 19 Sur 0 -- -- 75
2021-02-19 09:00:00 7 9 Sudeste 24 Sudoeste 0 -- -- 80
2021-02-19 08:00:00 6.9 12 Sudoeste 21 Sudoeste 0 -- -- 80
2021-02-19 07:00:00 6.7 11 Sur 20 Sudoeste 0 -- -- 84
2021-02-19 06:00:00 6.9 10 Sur 18 Sur 0 -- -- 82
2021-02-19 05:00:00 7.1 9 Sur 16 Sur 0 -- -- 81
2021-02-19 04:00:00 7.1 8 Sudoeste 14 Sur 0 -- -- 80
2021-02-19 03:00:00 7.5 8 Sur 15 Sur 0 -- -- 83
2021-02-19 02:00:00 8.6 12 Sur 22 Sur 0 -- -- 79
2021-02-19 01:00:00 9.7 14 Sudoeste 27 Sudoeste 0 -- -- 73
2021-02-19 00:00:00 10 15 Sur 28 Sur 0 -- -- 72
2021-02-18 23:00:00 10.2 12 Sudoeste 20 Sur 0 -- -- 77
2021-02-18 22:00:00 10.2 15 Sudoeste 28 Sudoeste 0 -- -- 76
2021-02-18 21:00:00 9.7 11 Sur 19 Sur 0 -- -- 75
2021-02-18 20:00:00 9.5 12 Sur 30 Sur 0 -- -- 78
2021-02-18 19:00:00 10.4 18 Sur 27 Sur 0 -- -- 74
2021-02-18 18:00:00 11.1 16 Sudoeste 27 Sudoeste 0 -- -- 69
2021-02-18 17:00:00 12 19 Sudoeste 42 Sudoeste 0 -- -- 61
2021-02-18 16:00:00 13.3 27 Sudoeste 53 Sudoeste 0 -- -- 56
2021-02-18 15:00:00 12.6 29 Sudoeste 50 Oeste 0 -- -- 62
2021-02-18 14:00:00 12 27 Oeste 52 Sudoeste 0 -- -- 61
2021-02-18 13:00:00 12.7 29 Sudoeste 46 Sudoeste 0 -- -- 56
2021-02-18 12:00:00 11.6 28 Sudoeste 46 Sudoeste 0 -- -- 62
2021-02-18 11:00:00 10.1 25 Sur 40 Sur 0 -- -- 70
2021-02-18 10:00:00 8.5 13 Sudoeste 27 Sudoeste 0 -- -- 75
2021-02-18 09:00:00 8.2 21 Sudoeste 41 Sudoeste 0 -- -- 75
2021-02-18 08:00:00 7.4 25 Sur 35 Sur 0 -- -- 83
2021-02-18 07:00:00 7.8 21 Sur 38 Sur 0 -- -- 82
2021-02-18 06:00:00 8 22 Sur 34 Sur 0 -- -- 83
2021-02-18 05:00:00 8.2 17 Sur 27 Sur 0 -- -- 85
2021-02-18 04:00:00 8.7 17 Sur 34 Sur 0 -- -- 84
2021-02-18 03:00:00 9.3 18 Sur 32 Sur 0 -- -- 81
2021-02-18 02:00:00 9.6 17 Sur 28 Sur 0 -- -- 80
2021-02-18 01:00:00 9.7 16 Sur 28 Sur 0 -- -- 79
2021-02-18 00:00:00 10.2 21 Sur 32 Sur 0 -- -- 76
2021-02-17 23:00:00 10.9 20 Sur 34 Sur 0 -- -- 74
2021-02-17 22:00:00 10.1 16 Sur 25 Sudoeste 0 -- -- 77
2021-02-17 21:00:00 10 12 Sudoeste 19 Sur 0 -- -- 78
2021-02-17 20:00:00 10.3 10 Sur 18 Sur 0 -- -- 77
2021-02-17 19:00:00 11.5 14 Sur 24 Sudeste 0 -- -- 73
2021-02-17 18:00:00 13.3 15 Sur 22 Sur 0 -- -- 68
2021-02-17 17:00:00 14.2 15 Sudoeste 25 Oeste 0 -- -- 63
2021-02-17 16:00:00 13.8 12 Oeste 25 Sudoeste 0 -- -- 68
2021-02-17 15:00:00 13.3 14 Sur 26 Sur 0 -- -- 69
2021-02-17 14:00:00 12.9 16 Sur 28 Sur 0 -- -- 71
2021-02-17 13:00:00 12.9 19 Sur 26 Sudoeste 0 -- -- 71
2021-02-17 12:00:00 12.7 18 Sudoeste 33 Sudoeste 0 -- -- 71
2021-02-17 11:00:00 11.8 15 Sudoeste 26 Sudoeste 0 -- -- 80
2021-02-17 10:00:00 9.6 13 Sudoeste 18 Sudoeste 0 -- -- 88
2021-02-17 09:00:00 7.9 7 Sur 13 Sur 0 -- -- 94
2021-02-17 08:00:00 6.7 0 Calma 3 Sur 0 -- -- 93
2021-02-17 07:00:00 7 0 Calma 6 Sur 0 -- -- 93
2021-02-17 06:00:00 6.7 3 Sudeste 4 Sudeste 0 -- -- 93
2021-02-17 05:00:00 7.5 0 Calma 8 Noroeste 0 -- -- 91
2021-02-17 04:00:00 8.3 2 Sur 5 Norte 0 -- -- 90
2021-02-17 03:00:00 8.4 2 Norte 6 Noroeste 0 -- -- 90
2021-02-17 02:00:00 8.9 0 Calma 17 Oeste 0 -- -- 87
2021-02-17 01:00:00 9.4 7 Sur 16 Sudoeste 0 -- -- 85
2021-02-17 00:00:00 9.3 7 Sur 14 Sur 0 -- -- 84
2021-02-16 23:00:00 9.4 11 Sur 16 Sur 0 -- -- 82
2021-02-16 22:00:00 9.4 9 Sur 18 Sur 0 -- -- 82
2021-02-16 21:00:00 9.8 10 Sur 16 Sur 0 -- -- 80
2021-02-16 20:00:00 10.5 8 Sur 20 Sudoeste 0 -- -- 78
2021-02-16 19:00:00 11.2 14 Oeste 21 Oeste 0 -- -- 75
2021-02-16 18:00:00 11.6 11 Sudoeste 27 Sudoeste 0 -- -- 72
2021-02-16 17:00:00 12.3 14 Sudoeste 39 Sudoeste 0 -- -- 69
2021-02-16 16:00:00 13.2 21 Sudoeste 44 Sudoeste 0 -- -- 64
2021-02-16 15:00:00 13.5 25 Sudoeste 45 Sudoeste 0 -- -- 60
2021-02-16 14:00:00 13 21 Sudoeste 36 Sur 0 -- -- 58
2021-02-16 13:00:00 12.4 24 Sudoeste 41 Sudoeste 0 -- -- 62
2021-02-16 12:00:00 11.8 24 Sudoeste 39 Sudoeste 0 -- -- 65
2021-02-16 11:00:00 9.5 21 Sudoeste 36 Sudoeste 0 -- -- 72
2021-02-16 10:00:00 9.5 11 Oeste 27 Oeste 0 -- -- 68
2021-02-16 09:00:00 7.9 5 Noroeste 22 Sudoeste 0 -- -- 69
2021-02-16 08:00:00 9.3 11 Sudoeste 22 Sudoeste 0 -- -- 62
2021-02-16 07:00:00 8.8 3 Sur 17 Sur 0 -- -- 61
2021-02-16 06:00:00 10.5 9 Sur 35 Sur 0 -- -- 54
2021-02-16 05:00:00 11.3 22 Sudoeste 34 Sudoeste 0 -- -- 53
2021-02-16 04:00:00 11.5 24 Sur 41 Sur 0 -- -- 54
2021-02-16 03:00:00 10.5 17 Sudoeste 32 Sudoeste 0 -- -- 56
2021-02-16 02:00:00 8.2 4 Norte 13 Sudoeste 0 -- -- 68
2021-02-16 01:00:00 9.5 3 Oeste 15 Oeste 0 -- -- 65
2021-02-16 00:00:00 10.8 3 Norte 27 Oeste 0 -- -- 56
2021-02-15 23:00:00 8 9 Sudoeste 15 Sudoeste 0 -- -- 69
2021-02-15 22:00:00 6.1 3 Sudoeste 10 Sudoeste 0 -- -- 82
2021-02-15 21:00:00 9 5 Sudeste 20 Sudeste 0 -- -- 72
2021-02-15 20:00:00 10.6 15 Sudeste 23 Sudeste 0 -- -- 67
2021-02-15 19:00:00 12.6 16 Sur 30 Sur 0 -- -- 60
2021-02-15 18:00:00 14.7 17 Sur 28 Sur 0 -- -- 55
2021-02-15 17:00:00 16.5 18 Sudoeste 26 Sur 0 -- -- 52
2021-02-15 16:00:00 17.7 15 Sudoeste 22 Sur 0 -- -- 47
2021-02-15 15:00:00 17.9 11 Sudoeste 15 Sur 0 -- -- 45
2021-02-15 14:00:00 16.7 9 Sur 19 Sur 0 -- -- 41
2021-02-15 13:00:00 15.5 12 Sur 20 Sudeste 0 -- -- 46
2021-02-15 12:00:00 14.1 14 Sur 24 Sudeste 0 -- -- 55
2021-02-15 11:00:00 11.2 15 Sur 21 Sur 0 -- -- 72
2021-02-15 10:00:00 4.4 0 Calma 4 Sudoeste 0 -- -- 98
2021-02-15 09:00:00 0.1 2 Sudeste 5 Sur 0 -- -- 96
2021-02-15 08:00:00 -0.6 4 Sur 6 Sudoeste 0 -- -- 94
2021-02-15 07:00:00 -0.5 4 Sur 6 Sur 0 -- -- 93
2021-02-15 06:00:00 0.1 5 Sudoeste 6 Sur 0 -- -- 93
2021-02-15 05:00:00 1 0 Calma 8 Sudeste 0 -- -- 94
2021-02-15 04:00:00 0.9 4 Sur 8 Sur 0 -- -- 92
2021-02-15 03:00:00 1.5 4 Sur 9 Sur 0 -- -- 94
2021-02-15 02:00:00 1.7 4 Sur 8 Sur 0 -- -- 93
2021-02-15 01:00:00 2.4 4 Sur 8 Sudeste 0 -- -- 89
2021-02-15 00:00:00 3.8 2 Sur 9 Sur 0 -- -- 87
2021-02-14 23:00:00 5.1 4 Este 6 Nordeste 0 -- -- 84
2021-02-14 22:00:00 7.1 0 Calma 7 Este 0 -- -- 79
2021-02-14 21:00:00 8.8 2 Sudoeste 13 Sur 0 -- -- 74
2021-02-14 20:00:00 10.4 11 Sur 15 Sur 0 -- -- 69
2021-02-14 19:00:00 12.2 8 Sur 19 Sur 0 -- -- 66
2021-02-14 18:00:00 15.1 11 Sur 18 Sur 0 -- -- 57
2021-02-14 17:00:00 16.7 9 Oeste 19 Oeste 0 -- -- 56
2021-02-14 16:00:00 17.3 11 Oeste 21 Oeste 0 -- -- 52
2021-02-14 15:00:00 17 12 Sur 21 Sur 0 -- -- 51
2021-02-14 14:00:00 15.9 13 Sur 31 Sur 0 -- -- 52
2021-02-14 13:00:00 15.2 12 Sudoeste 18 Sudoeste 0 -- -- 53
2021-02-14 12:00:00 12.9 11 Sudeste 19 Sudeste 0 -- -- 67
2021-02-14 11:00:00 10.7 8 Sudeste 13 Sudeste 0 -- -- 81
2021-02-14 10:00:00 4.5 3 Norte 6 Este 0 -- -- 99
2021-02-14 09:00:00 1 4 Sur 6 Sur 0 -- -- 98
2021-02-14 08:00:00 0.3 4 Sur 6 Sur 0 -- -- 96
2021-02-14 07:00:00 0.1 3 Sur 6 Sur 0 -- -- 96
2021-02-14 06:00:00 0.1 0 Calma 5 Sur 0 -- -- 94
2021-02-14 05:00:00 0.8 0 Calma 3 Sur 0 -- -- 95
2021-02-14 04:00:00 1.4 4 Sur 6 Sur 0 -- -- 94
2021-02-14 03:00:00 2.1 3 Sur 5 Sur 0 -- -- 95
2021-02-14 02:00:00 2.5 3 Sur 7 Sur 0 -- -- 93
2021-02-14 01:00:00 3.6 4 Sur 8 Sur 0 -- -- 93
2021-02-14 00:00:00 4.5 6 Sur 8 Sur 0 -- -- 93
2021-02-13 23:00:00 5.2 6 Sur 11 Sur 0 -- -- 93
2021-02-13 22:00:00 6.4 5 Sur 8 Sur 0 -- -- 90
2021-02-13 21:00:00 8.7 3 Sur 6 Sur 0 -- -- 86
2021-02-13 20:00:00 10.2 4 Sur 5 Sur 0 -- -- 84
2021-02-13 19:00:00 11.6 0 Calma 7 Oeste 0 -- -- 76
2021-02-13 18:00:00 12.1 5 Oeste 15 Norte 0 -- -- 72
2021-02-13 17:00:00 13.2 9 Noroeste 21 Oeste 0 -- -- 67
2021-02-13 16:00:00 13 10 Noroeste 21 Noroeste 0 -- -- 67
2021-02-13 15:00:00 13.2 11 Noroeste 23 Oeste 0 -- -- 66
2021-02-13 14:00:00 12.2 15 Oeste 22 Sudoeste 0 -- -- 66
2021-02-13 13:00:00 10.2 14 Sudoeste 25 Sudoeste 0 -- -- 68
2021-02-13 08:00:00 -- -- -- -- -- -- -- -- --
2021-02-13 07:00:00 2.2 6 Sur 8 Sur 0 -- -- 96
2021-02-13 06:00:00 2 5 Sur 8 Sur 0 -- -- 96
2021-02-13 05:00:00 1.9 4 Sur 6 Sudoeste 0 -- -- 93
2021-02-13 04:00:00 3.3 0 Calma 6 Sudoeste 0 -- -- 92
2021-02-13 03:00:00 4.9 5 Sur 10 Sudeste 0 -- -- 93
2021-02-13 02:00:00 5.2 4 Sur 11 Sur 0 -- -- 93
2021-02-13 01:00:00 5.2 8 Sur 12 Sur 0 -- -- 92
2021-02-13 00:00:00 5.2 9 Sur 12 Sur 0 -- -- 89
2021-02-12 23:00:00 6 6 Sudoeste 12 Oeste 0 -- -- 85
2021-02-12 22:00:00 6.3 6 Sudoeste 13 Oeste 0 -- -- 83
2021-02-12 21:00:00 6.5 5 Sur 14 Oeste 0 -- -- 84
2021-02-12 20:00:00 7.4 5 Sudoeste 10 Oeste 0 -- -- 82
2021-02-12 19:00:00 9.6 5 Sudoeste 14 Oeste 0 -- -- 74
2021-02-12 18:00:00 11.5 6 Oeste 22 Oeste 0 -- -- 68
2021-02-12 17:00:00 12.1 17 Oeste 32 Oeste 0 -- -- 64
2021-02-12 16:00:00 10.9 12 Oeste 29 Oeste 0 -- -- 68
2021-02-12 15:00:00 11.3 19 Oeste 35 Oeste 0 -- -- 68
2021-02-12 14:00:00 10.6 16 Oeste 34 Oeste 0 -- -- 74
2021-02-12 13:00:00 9.7 18 Oeste 38 Oeste 0 -- -- 75
2021-02-12 12:00:00 10 22 Oeste 48 Oeste 0 -- -- 77
2021-02-12 11:00:00 8.7 20 Oeste 39 Oeste 0 -- -- 86
2021-02-12 10:00:00 7.6 17 Oeste 28 Oeste 0 -- -- 92
2021-02-12 09:00:00 6.6 14 Oeste 24 Sudoeste 0 -- -- 94
2021-02-12 08:00:00 6.8 17 Oeste 37 Oeste 0 -- -- 94
2021-02-12 07:00:00 7.1 15 Oeste 37 Oeste 0.2 -- -- 93
2021-02-12 06:00:00 7.9 17 Oeste 43 Oeste 0 -- -- 93
2021-02-12 05:00:00 8.3 22 Oeste 44 Oeste 0.6 -- -- 92
2021-02-12 04:00:00 9.4 19 Oeste 33 Sudoeste 0 -- -- 94
2021-02-12 03:00:00 9.7 22 Sudoeste 35 Sudoeste 0.2 -- -- 93
2021-02-12 02:00:00 9.1 14 Sudoeste 40 Sudoeste 4.6 -- -- 93
2021-02-12 01:00:00 10.5 17 Sudoeste 33 Sur 1 -- -- 90
2021-02-12 00:00:00 10.6 25 Sur 41 Sur 0 -- -- 88
2021-02-11 23:00:00 10.4 17 Sur 35 Sur 0 -- -- 89
2021-02-11 22:00:00 10.5 18 Sur 31 Sur 0 -- -- 88
2021-02-11 21:00:00 10.7 20 Sur 36 Sur 0 -- -- 86
2021-02-11 20:00:00 10.6 13 Sur 24 Sur 0 -- -- 88
2021-02-11 19:00:00 11.1 14 Sur 27 Sur 0 -- -- 87
2021-02-11 18:00:00 11.9 19 Sur 33 Sur 0 -- -- 84
2021-02-11 17:00:00 12.7 23 Sur 32 Sudoeste 0 -- -- 80
2021-02-11 16:00:00 12.8 19 Sur 35 Sur 0 -- -- 82
2021-02-11 15:00:00 13.3 24 Sur 40 Sur 0 -- -- 75
2021-02-11 14:00:00 13.3 23 Sur 32 Sudoeste 0 -- -- 76
2021-02-11 13:00:00 12.9 19 Sudoeste 33 Sudoeste 0 -- -- 82
2021-02-11 12:00:00 12 13 Sudoeste 29 Sudoeste 0 -- -- 88
2021-02-11 11:00:00 11.5 14 Sudoeste 25 Sur 0 -- -- 87
2021-02-11 10:00:00 10.6 15 Sur 21 Sur 0 -- -- 91
2021-02-11 09:00:00 9.3 4 Sur 10 Sur 0 -- -- 94
2021-02-11 08:00:00 9.2 6 Sur 12 Sudoeste 0 -- -- 93
2021-02-11 07:00:00 9.2 8 Sur 12 Sudoeste 0 -- -- 93
2021-02-11 06:00:00 9.1 8 Sudoeste 12 Sur 0 -- -- 95
2021-02-11 05:00:00 8.7 8 Sudoeste 21 Sudoeste 0 -- -- 94
2021-02-11 04:00:00 8.8 13 Sur 19 Sur 0 -- -- 90
2021-02-11 03:00:00 9.3 12 Sur 32 Sudoeste 0 -- -- 92
2021-02-11 02:00:00 8.7 9 Sudoeste 17 Sur 0 -- -- 92
2021-02-11 01:00:00 8.4 5 Sudoeste 9 Sudoeste 0 -- -- 91
2021-02-11 00:00:00 8.5 5 Sudoeste 19 Sudoeste 0 -- -- 87
2021-02-10 23:00:00 8.4 2 Sudoeste 10 Sudoeste 0 -- -- 80
2021-02-10 22:00:00 8.3 8 Sudoeste 20 Sudoeste 0 -- -- 82
2021-02-10 21:00:00 7.8 8 Sudoeste 11 Sur 0 -- -- 84
2021-02-10 20:00:00 8 5 Sudoeste 9 Sudoeste 0 -- -- 76
2021-02-10 19:00:00 9.1 6 Sudoeste 16 Oeste 0 -- -- 64
2021-02-10 18:00:00 10.2 10 Oeste 26 Oeste 0 -- -- 57
2021-02-10 17:00:00 10.7 9 Oeste 31 Oeste 0 -- -- 62
2021-02-10 16:00:00 11.1 20 Oeste 35 Oeste 0 -- -- 59
2021-02-10 15:00:00 10.7 20 Oeste 36 Sudoeste 0 -- -- 60
2021-02-10 14:00:00 10 21 Oeste 37 Oeste 0 -- -- 66
2021-02-10 13:00:00 9 22 Oeste 46 Sudoeste 0 -- -- 71
2021-02-10 12:00:00 7.9 18 Oeste 40 Oeste 0 -- -- 77
2021-02-10 11:00:00 7.2 22 Oeste 36 Sudoeste 0 -- -- 80
2021-02-10 10:00:00 5.7 14 Oeste 29 Oeste 0 -- -- 90
2021-02-10 09:00:00 5.3 16 Oeste 30 Oeste 0 -- -- 91
2021-02-10 08:00:00 5.3 21 Oeste 42 Oeste 0 -- -- 91
2021-02-10 07:00:00 5.1 20 Sudoeste 37 Sudoeste 0 -- -- 93
2021-02-10 06:00:00 5.3 21 Oeste 41 Oeste 0 -- -- 92
2021-02-10 05:00:00 5.1 23 Oeste 62 Oeste 0.8 -- -- 93
2021-02-10 04:00:00 5.8 24 Oeste 45 Sudoeste 2 -- -- 95
2021-02-10 03:00:00 5.7 28 Oeste 55 Sudoeste 2 -- -- 93
2021-02-10 02:00:00 6 32 Sudoeste 61 Sudoeste 1.2 -- -- 91
2021-02-10 01:00:00 5.5 23 Sudoeste 39 Sudoeste 0.6 -- -- 93
2021-02-10 00:00:00 5.3 19 Sudoeste 33 Sudoeste 0.2 -- -- 90
2021-02-09 23:00:00 4.9 21 Sudoeste 47 Oeste 0.4 -- -- 91
2021-02-09 22:00:00 5.4 23 Sudoeste 49 Sudoeste 0.8 -- -- 93
2021-02-09 21:00:00 6 20 Sudoeste 39 Sudoeste 0 -- -- 88
2021-02-09 20:00:00 5.4 20 Sudoeste 43 Sudoeste 0 -- -- 89
2021-02-09 19:00:00 5 15 Sudoeste 44 Oeste 0.2 -- -- 92
2021-02-09 18:00:00 4.9 28 Oeste 50 Sudoeste 2.2 -- -- 91
2021-02-09 17:00:00 7.5 19 Sudoeste 36 Sudoeste 0 -- -- 82
2021-02-09 16:00:00 6.5 17 Sudoeste 30 Sudoeste 0 -- -- 88
2021-02-09 15:00:00 5.7 21 Sudoeste 30 Sudoeste 0 -- -- 90
2021-02-09 14:00:00 3.5 16 Sudoeste 32 Oeste 1.6 -- -- 95
2021-02-09 13:00:00 3.6 14 Oeste 55 Oeste 3.8 -- -- 94
2021-02-09 12:00:00 7.1 25 Oeste 43 Oeste 3 -- -- 93
2021-02-09 11:00:00 7.3 24 Sudoeste 43 Sudoeste 1 -- -- 91
2021-02-09 10:00:00 6.9 26 Sudoeste 42 Sudoeste 1 -- -- 92
2021-02-09 09:00:00 6.8 22 Sudoeste 49 Sudoeste 1 -- -- 92
2021-02-09 08:00:00 6.7 20 Sudoeste 36 Sur 0.8 -- -- 92
2021-02-09 07:00:00 6.6 18 Sudoeste 34 Sudoeste 0.4 -- -- 91
2021-02-09 06:00:00 6.5 19 Sudoeste 33 Sur 0 -- -- 89
2021-02-09 05:00:00 6.3 15 Sudoeste 30 Sudoeste 0.2 -- -- 90
2021-02-09 04:00:00 5.9 17 Sudoeste 27 Sudoeste 0.2 -- -- 92
2021-02-09 03:00:00 5.5 17 Sudoeste 29 Sur 0.2 -- -- 90
2021-02-09 02:00:00 5 22 Sur 32 Sur 0 -- -- 89
2021-02-09 01:00:00 5.6 13 Sur 33 Sudoeste 0 -- -- 85
2021-02-09 00:00:00 5.6 19 Sudoeste 35 Sudoeste 0.2 -- -- 85
2021-02-08 23:00:00 5.5 17 Sudoeste 33 Sudoeste 0 -- -- 92
2021-02-08 22:00:00 5.7 14 Sudoeste 33 Sudoeste 0 -- -- 93
2021-02-08 21:00:00 6 16 Sudoeste 32 Sudoeste 0.2 -- -- 93
2021-02-08 20:00:00 6.4 17 Sudoeste 40 Oeste 0 -- -- 91
2021-02-08 19:00:00 6.8 24 Oeste 41 Sudoeste 0 -- -- 87
2021-02-08 18:00:00 7.2 26 Oeste 58 Sudoeste 0.2 -- -- 85
2021-02-08 17:00:00 7.1 27 Oeste 53 Oeste 0 -- -- 86
2021-02-08 16:00:00 7.4 36 Oeste 60 Sudoeste 0 -- -- 82
2021-02-08 15:00:00 7.4 31 Oeste 51 Sudoeste 0.2 -- -- 83
2021-02-08 14:00:00 8 29 Sudoeste 53 Sudoeste 0 -- -- 80
2021-02-08 13:00:00 7.6 28 Sudoeste 49 Sudoeste 0 -- -- 82
2021-02-08 12:00:00 6.5 32 Sudoeste 49 Sudoeste 0 -- -- 84
2021-02-08 11:00:00 5.2 27 Sudoeste 45 Sudoeste 0 -- -- 90
2021-02-08 10:00:00 5.2 28 Oeste 45 Oeste 0 -- -- 93
2021-02-08 09:00:00 4.6 17 Sudoeste 41 Sudoeste 0.2 -- -- 94
2021-02-08 08:00:00 4.7 19 Sudoeste 35 Sudoeste 0.4 -- -- 94
2021-02-08 07:00:00 4.6 13 Sudoeste 37 Oeste 0 -- -- 93
2021-02-08 06:00:00 5.2 22 Oeste 41 Sudoeste 0 -- -- 93
2021-02-08 05:00:00 6.2 19 Oeste 38 Sudoeste 0.2 -- -- 94
2021-02-08 04:00:00 6.6 22 Oeste 39 Sudoeste 0.2 -- -- 93
2021-02-08 03:00:00 6.6 18 Sudoeste 46 Sudoeste 2.4 -- -- 94
2021-02-08 02:00:00 5.9 10 Sudoeste 21 Sudoeste 0.2 -- -- 94
2021-02-08 01:00:00 5.7 15 Sudoeste 32 Sudoeste 4.4 -- -- 94
2021-02-08 00:00:00 5.8 23 Sudoeste 44 Sudoeste 0.4 -- -- 92
2021-02-07 23:00:00 5.6 28 Sudoeste 44 Sur 0 -- -- 90
2021-02-07 22:00:00 5.1 24 Sur 50 Sur 0.2 -- -- 92
2021-02-07 21:00:00 4.6 20 Sur 31 Sur 0 -- -- 92
2021-02-07 20:00:00 4.6 16 Sur 24 Sudoeste 0 -- -- 93
2021-02-07 19:00:00 4.2 13 Sudoeste 23 Sudoeste 0 -- -- 93
2021-02-07 18:00:00 4.1 12 Sudoeste 27 Sudoeste 0.4 -- -- 94
2021-02-07 17:00:00 4 13 Sudoeste 35 Sudoeste 0.4 -- -- 91
2021-02-07 16:00:00 4.6 17 Sudoeste 35 Sudoeste 0.2 -- -- 84
2021-02-07 15:00:00 5 20 Oeste 36 Oeste 0 -- -- 84
2021-02-07 14:00:00 6.2 22 Oeste 37 Sudoeste 0 -- -- 74
2021-02-07 13:00:00 6 18 Sudoeste 35 Oeste 0 -- -- 80
2021-02-07 12:00:00 4.4 15 Sudoeste 23 Sudoeste 0 -- -- 93
2021-02-07 11:00:00 4.1 13 Sudoeste 19 Sudoeste 0 -- -- 96
2021-02-07 10:00:00 3.1 6 Sudoeste 10 Sudoeste 0 -- -- 98
2021-02-07 09:00:00 1.9 5 Sur 6 Sur 0 -- -- 97
2021-02-07 08:00:00 2.3 4 Sudoeste 5 Sudoeste 0 -- -- 95
2021-02-07 07:00:00 3.3 3 Norte 4 Noroeste 0 -- -- 95
2021-02-07 06:00:00 3.8 2 Oeste 4 Oeste 0 -- -- 93
2021-02-07 05:00:00 4.2 0 Calma 9 Este 0 -- -- 92
2021-02-07 04:00:00 4.3 6 Este 14 Este 0 -- -- 89
2021-02-07 03:00:00 4.6 9 Este 17 Este 0 -- -- 87
2021-02-07 02:00:00 5 9 Este 15 Este 0 -- -- 88
2021-02-07 01:00:00 5 2 Norte 6 Nordeste 0 -- -- 91
2021-02-07 00:00:00 5 3 Nordeste 13 Este 0 -- -- 90
2021-02-06 23:00:00 5.4 8 Este 20 Nordeste 0 -- -- 90
2021-02-06 22:00:00 5.6 8 Nordeste 17 Nordeste 0 -- -- 90
2021-02-06 21:00:00 5.6 11 Nordeste 26 Este 0 -- -- 88
2021-02-06 20:00:00 5.9 17 Nordeste 28 Nordeste 0 -- -- 87
2021-02-06 19:00:00 6.1 12 Nordeste 32 Nordeste 0 -- -- 89
2021-02-06 18:00:00 6.6 18 Nordeste 37 Nordeste 0 -- -- 88
2021-02-06 17:00:00 6.5 16 Nordeste 34 Nordeste 0 -- -- 92
2021-02-06 16:00:00 6.7 18 Norte 33 Norte 0 -- -- 92
2021-02-06 15:00:00 7.7 15 Norte 30 Norte 0 -- -- 91
2021-02-06 14:00:00 7.8 12 Norte 24 Norte 0 -- -- 91
2021-02-06 13:00:00 8.1 8 Norte 17 Noroeste 0.2 -- -- 92
2021-02-06 12:00:00 7.1 9 Norte 14 Norte 0.4 -- -- 97
2021-02-06 11:00:00 6.6 4 Norte 8 Noroeste 1 -- -- 97
2021-02-06 10:00:00 6.3 0 Calma 4 Nordeste 0.2 -- -- 98
2021-02-06 09:00:00 5.9 0 Calma 5 Sudoeste 0.6 -- -- 98
2021-02-06 08:00:00 5.9 4 Sur 5 Sur 0.2 -- -- 97
2021-02-06 07:00:00 6 0 Calma 3 Oeste 0.2 -- -- 97
2021-02-06 06:00:00 6 0 Calma 5 Sur 0 -- -- 97
2021-02-06 05:00:00 6.1 0 Calma 8 Sudoeste 0.2 -- -- 97
2021-02-06 04:00:00 6.1 5 Sudoeste 8 Sudoeste 0.2 -- -- 97
2021-02-06 03:00:00 6.2 5 Sudoeste 8 Sudoeste 0.2 -- -- 97
2021-02-06 02:00:00 6.4 5 Sudoeste 10 Sudoeste 0 -- -- 97
2021-02-06 01:00:00 6.4 8 Sudoeste 12 Sudoeste 0 -- -- 97
2021-02-06 00:00:00 6.7 5 Sur 8 Sudoeste 0 -- -- 96
2021-02-05 23:00:00 6.8 2 Oeste 15 Oeste 0.4 -- -- 96
2021-02-05 22:00:00 7.6 10 Sudoeste 23 Sudoeste 0.2 -- -- 96
2021-02-05 21:00:00 7.6 4 Norte 13 Norte 0 -- -- 97
2021-02-05 20:00:00 7.7 5 Noroeste 11 Norte 0.6 -- -- 97
2021-02-05 19:00:00 7.8 6 Norte 15 Noroeste 0.2 -- -- 96
2021-02-05 18:00:00 8 11 Oeste 24 Noroeste 9 -- -- 95
2021-02-05 17:00:00 9.2 8 Norte 25 Norte 0.2 -- -- 92
2021-02-05 16:00:00 10.3 11 Norte 20 Nordeste 0 -- -- 89
2021-02-05 15:00:00 11.1 3 Sur 6 Sudoeste 0 -- -- 76
2021-02-05 14:00:00 11.2 2 Sur 12 Sudeste 0 -- -- 78
2021-02-05 13:00:00 10.8 6 Sudeste 17 Este 0 -- -- 82
2021-02-05 12:00:00 9.8 7 Este 22 Sudeste 0 -- -- 86
2021-02-05 11:00:00 8.6 13 Sudeste 26 Sudeste 0 -- -- 88
2021-02-05 10:00:00 7.7 15 Sudeste 26 Sudeste 0.2 -- -- 93
2021-02-05 09:00:00 5.7 3 Norte 10 Sudeste 1.4 -- -- 99
2021-02-05 08:00:00 5.3 3 Nordeste 13 Norte 1 -- -- 98
2021-02-05 07:00:00 5.3 3 Noroeste 17 Nordeste 0 -- -- 98
2021-02-05 06:00:00 5.3 12 Nordeste 26 Este 0 -- -- 98
2021-02-05 05:00:00 5.2 19 Este 28 Este 0.2 -- -- 97
2021-02-05 04:00:00 5.3 13 Nordeste 22 Este 0.4 -- -- 98
2021-02-05 03:00:00 5.4 11 Nordeste 19 Nordeste 0 -- -- 98
2021-02-05 02:00:00 5.5 7 Norte 14 Norte 0.4 -- -- 97
2021-02-05 01:00:00 5.7 2 Norte 12 Este 1 -- -- 97
2021-02-05 00:00:00 5.7 9 Este 24 Este 0 -- -- 97
2021-02-04 23:00:00 5.7 7 Este 13 Este 0 -- -- 97
2021-02-04 22:00:00 5.6 3 Nordeste 10 Oeste 1.4 -- -- 97
2021-02-04 21:00:00 5.8 5 Oeste 21 Este 0.6 -- -- 96
2021-02-04 20:00:00 5.7 12 Este 32 Este 0 -- -- 96
2021-02-04 19:00:00 5.9 18 Este 27 Este 0.6 -- -- 96
2021-02-04 18:00:00 5.8 14 Este 20 Este 1 -- -- 96
2021-02-04 17:00:00 5.6 7 Este 10 Este 1.8 -- -- 95
2021-02-04 16:00:00 5.5 4 Norte 17 Nordeste 1 -- -- 93
2021-02-04 15:00:00 5.5 10 Nordeste 16 Nordeste 3 -- -- 95
2021-02-04 14:00:00 5.6 8 Norte 17 Noroeste 3.6 -- -- 95
2021-02-04 13:00:00 6.4 6 Noroeste 9 Oeste 1.8 -- -- 95
2021-02-04 12:00:00 6.3 5 Oeste 12 Noroeste 1.8 -- -- 95
2021-02-04 11:00:00 6.3 4 Oeste 15 Noroeste 4.4 -- -- 96
2021-02-04 10:00:00 7.3 2 Noroeste 17 Este 1.4 -- -- 96
2021-02-04 09:00:00 7.3 12 Este 18 Este 0.4 -- -- 96
2021-02-04 08:00:00 7.4 0 Calma 5 Este 0.6 -- -- 96
2021-02-04 07:00:00 7.3 0 Calma 5 Nordeste 0 -- -- 96
2021-02-04 06:00:00 7.3 0 Calma 6 Este 0 -- -- 96
2021-02-04 05:00:00 7.3 0 Calma 4 Oeste 0 -- -- 95
2021-02-04 04:00:00 7.2 0 Calma 4 Norte 0 -- -- 95
2021-02-04 03:00:00 7.5 0 Calma 13 Sur 0 -- -- 93
2021-02-04 02:00:00 7.8 8 Sudoeste 13 Sudoeste 0 -- -- 93
2021-02-04 01:00:00 8 9 Sur 17 Sur 0 -- -- 93
2021-02-04 00:00:00 8.2 10 Sur 19 Sur 0 -- -- 92
2021-02-03 23:00:00 8.9 9 Sur 19 Sudoeste 0 -- -- 93
2021-02-03 22:00:00 8.8 12 Sudoeste 19 Sudoeste 0 -- -- 91
2021-02-03 21:00:00 9 9 Sudoeste 22 Sudoeste 0.2 -- -- 92
2021-02-03 20:00:00 9.1 10 Sudoeste 29 Sudoeste 0.6 -- -- 94
2021-02-03 19:00:00 9.3 15 Sudoeste 24 Sudoeste 1 -- -- 92
2021-02-03 18:00:00 9.9 17 Sudoeste 27 Sudoeste 0.4 -- -- 90
2021-02-03 17:00:00 10.4 12 Sudoeste 27 Sudoeste 0.4 -- -- 92
2021-02-03 16:00:00 10.5 13 Sudoeste 30 Sudoeste 0.2 -- -- 91
2021-02-03 15:00:00 9.8 20 Oeste 32 Oeste 0.2 -- -- 91
2021-02-03 14:00:00 10.7 14 Sudoeste 41 Sudoeste 0.6 -- -- 89
2021-02-03 13:00:00 11.3 18 Sudoeste 40 Sudoeste 0 -- -- 81
2021-02-03 12:00:00 10.8 19 Sudoeste 39 Sudoeste 0 -- -- 85
2021-02-03 11:00:00 10.7 18 Sudoeste 32 Sudoeste 0.2 -- -- 83
2021-02-03 10:00:00 9.2 18 Sudoeste 37 Sudoeste 0 -- -- 89
2021-02-03 09:00:00 8.7 25 Sudoeste 39 Sudoeste 0 -- -- 85
2021-02-03 08:00:00 8.6 24 Sudoeste 45 Sur 0 -- -- 85
2021-02-03 07:00:00 8.4 28 Sudoeste 51 Sur 0 -- -- 86
2021-02-03 06:00:00 8.6 30 Sudoeste 59 Sudoeste 0 -- -- 85
2021-02-03 05:00:00 8.7 31 Sudoeste 43 Sudoeste 0 -- -- 85
2021-02-03 04:00:00 8.6 26 Sudoeste 47 Sudoeste 0 -- -- 86
2021-02-03 03:00:00 8.7 30 Sudoeste 49 Sudoeste 0 -- -- 86
2021-02-03 02:00:00 8.8 33 Sudoeste 51 Sudoeste 0 -- -- 85
2021-02-03 01:00:00 8.7 31 Sudoeste 50 Sur 0 -- -- 86
2021-02-03 00:00:00 8.6 35 Sur 49 Sudoeste 0 -- -- 86
2021-02-02 23:00:00 8.8 28 Sudoeste 41 Sudoeste 0 -- -- 83
2021-02-02 22:00:00 9.1 13 Sudoeste 28 Sudoeste 0 -- -- 81
2021-02-02 21:00:00 9.2 17 Sudoeste 27 Sudoeste 0 -- -- 81
2021-02-02 20:00:00 9.2 11 Sudoeste 30 Sudoeste 0 -- -- 82
2021-02-02 19:00:00 9.9 13 Sudoeste 31 Sudoeste 0 -- -- 80
2021-02-02 18:00:00 10.2 22 Sudoeste 38 Sudoeste 0 -- -- 80
2021-02-02 17:00:00 10.4 26 Sudoeste 40 Sur 0 -- -- 78
2021-02-02 16:00:00 11.9 19 Sudoeste 34 Sur 0.2 -- -- 72
2021-02-02 15:00:00 12.5 18 Oeste 30 Sudoeste 0 -- -- 73
2021-02-02 14:00:00 11.7 19 Sudoeste 38 Sudoeste 0 -- -- 75
2021-02-02 13:00:00 11 22 Oeste 37 Sudoeste 0 -- -- 80
2021-02-02 12:00:00 10.3 18 Oeste 25 Oeste 0 -- -- 88
2021-02-02 11:00:00 9.8 12 Sudoeste 23 Sudoeste 0 -- -- 92
2021-02-02 10:00:00 9.3 10 Sudoeste 19 Sudoeste 0 -- -- 92
2021-02-02 09:00:00 8.9 9 Sudoeste 22 Sudoeste 0 -- -- 94
2021-02-02 08:00:00 8.9 5 Sur 13 Sudoeste 0 -- -- 94
2021-02-02 07:00:00 9 6 Sur 14 Sur 0 -- -- 93
2021-02-02 06:00:00 8.8 9 Sur 14 Sur 0 -- -- 94
2021-02-02 05:00:00 9.5 10 Sudoeste 19 Sudoeste 0 -- -- 95
2021-02-02 04:00:00 9.3 10 Sudoeste 22 Sudoeste 0.2 -- -- 94
2021-02-02 03:00:00 9.3 14 Sudoeste 25 Sudoeste 0 -- -- 93
2021-02-02 02:00:00 9.4 13 Sudoeste 22 Sudoeste 0 -- -- 93
2021-02-02 01:00:00 9.5 13 Sur 26 Sur 0 -- -- 91
2021-02-02 00:00:00 9.6 13 Sur 28 Sudoeste 0 -- -- 91
2021-02-01 23:00:00 9.8 18 Sur 27 Sur 0 -- -- 91
2021-02-01 22:00:00 9.7 12 Sudoeste 19 Sudoeste 0 -- -- 89
2021-02-01 21:00:00 10.2 10 Sudoeste 18 Sudoeste 0 -- -- 81
2021-02-01 20:00:00 10.3 9 Sudoeste 22 Oeste 0 -- -- 78
2021-02-01 19:00:00 10.4 14 Oeste 24 Sudoeste 0 -- -- 76
2021-02-01 18:00:00 11 19 Oeste 40 Sudoeste 0 -- -- 73
2021-02-01 17:00:00 12.4 24 Oeste 41 Oeste 0 -- -- 69
2021-02-01 16:00:00 11.6 20 Oeste 41 Sudoeste 0 -- -- 73
2021-02-01 15:00:00 11.7 23 Oeste 43 Oeste 0 -- -- 74
2021-02-01 14:00:00 11.7 27 Oeste 50 Sudoeste 0 -- -- 75
2021-02-01 13:00:00 10.5 23 Oeste 37 Sudoeste 0 -- -- 82
2021-02-01 12:00:00 9.7 22 Sudoeste 48 Sudoeste 0 -- -- 87
2021-02-01 11:00:00 9.1 18 Sudoeste 48 Sudoeste 0 -- -- 87
2021-02-01 10:00:00 8.5 19 Sudoeste 34 Oeste 0 -- -- 87
2021-02-01 09:00:00 7.7 23 Oeste 32 Sudoeste 0 -- -- 89
2021-02-01 08:00:00 7.6 15 Sudoeste 30 Sudoeste 0 -- -- 89
2021-02-01 07:00:00 7.3 21 Sudoeste 36 Sudoeste 0 -- -- 89
2021-02-01 06:00:00 7.1 20 Sudoeste 30 Sudoeste 0 -- -- 89
2021-02-01 05:00:00 7 14 Oeste 34 Oeste 0 -- -- 90
2021-02-01 04:00:00 7.4 22 Oeste 39 Oeste 0 -- -- 89
2021-02-01 03:00:00 8 18 Oeste 39 Oeste 0 -- -- 88
2021-02-01 02:00:00 8.4 24 Oeste 43 Sudoeste 0 -- -- 88
2021-02-01 01:00:00 8.8 20 Oeste 44 Oeste 0 -- -- 90
2021-02-01 00:00:00 9 30 Oeste 49 Oeste 0 -- -- 91
2021-01-31 23:00:00 9.3 28 Oeste 44 Sudoeste 0 -- -- 90
2021-01-31 22:00:00 9.3 24 Oeste 46 Sudoeste 0 -- -- 90
2021-01-31 21:00:00 10.2 31 Sudoeste 43 Sudoeste 0 -- -- 89
2021-01-31 20:00:00 10.4 19 Oeste 33 Oeste 0 -- -- 88
2021-01-31 19:00:00 10.9 22 Oeste 45 Oeste 0 -- -- 80
2021-01-31 18:00:00 12.6 24 Oeste 50 Oeste 0 -- -- 83
2021-01-31 17:00:00 12.7 26 Oeste 47 Oeste 0.2 -- -- 89
2021-01-31 16:00:00 12.1 21 Oeste 37 Oeste 0 -- -- 94
2021-01-31 15:00:00 11.6 20 Oeste 48 Sudoeste 0 -- -- 95
2021-01-31 14:00:00 11.2 23 Oeste 43 Sudoeste 0 -- -- 96
2021-01-31 13:00:00 10.5 25 Oeste 45 Oeste 0 -- -- 97
2021-01-31 12:00:00 9.2 24 Sudoeste 36 Sudoeste 0.2 -- -- 97
2021-01-31 11:00:00 8.3 21 Sudoeste 33 Sudoeste 0 -- -- 96
2021-01-31 10:00:00 7.5 18 Sudoeste 33 Sudoeste 0 -- -- 97
2021-01-31 09:00:00 7 19 Sudoeste 35 Sudoeste 0 -- -- 96
2021-01-31 08:00:00 6.6 19 Sudoeste 37 Sudoeste 0 -- -- 96
2021-01-31 07:00:00 6.2 22 Sudoeste 34 Sudoeste 0 -- -- 93
2021-01-31 06:00:00 6.3 21 Oeste 42 Oeste 0 -- -- 87
2021-01-31 05:00:00 6.2 25 Oeste 39 Oeste 0 -- -- 88
2021-01-31 04:00:00 5.9 19 Oeste 34 Oeste 0 -- -- 88
2021-01-31 03:00:00 5.8 20 Oeste 44 Sudoeste 0 -- -- 86
2021-01-31 02:00:00 5.8 27 Oeste 50 Oeste 0 -- -- 87
2021-01-31 01:00:00 6 28 Oeste 52 Oeste 0 -- -- 84
2021-01-31 00:00:00 6 28 Oeste 52 Oeste 0 -- -- 87
2021-01-30 23:00:00 5.8 22 Oeste 37 Oeste 0.6 -- -- 93
2021-01-30 22:00:00 5.8 18 Oeste 38 Sudoeste 0 -- -- 93
2021-01-30 21:00:00 6 23 Oeste 40 Sudoeste 0.2 -- -- 90
2021-01-30 20:00:00 6.4 22 Oeste 46 Oeste 0.2 -- -- 87
2021-01-30 19:00:00 6.9 19 Oeste 47 Oeste 0 -- -- 85
2021-01-30 18:00:00 6.8 30 Oeste 60 Oeste 0 -- -- 80
2021-01-30 17:00:00 7.9 29 Oeste 53 Sudoeste 0 -- -- 78
2021-01-30 16:00:00 7.6 30 Oeste 60 Oeste 0 -- -- 79
2021-01-30 15:00:00 8.1 34 Oeste 55 Sudoeste 0 -- -- 73
2021-01-30 14:00:00 9.5 29 Oeste 53 Oeste 0 -- -- 63
2021-01-30 13:00:00 8.4 39 Oeste 59 Oeste 0 -- -- 72
2021-01-30 12:00:00 8 26 Oeste 59 Oeste 0 -- -- 77
2021-01-30 11:00:00 7 25 Oeste 49 Oeste 0.2 -- -- 90
2021-01-30 10:00:00 6.9 29 Oeste 49 Oeste 0 -- -- 89
2021-01-30 09:00:00 6.2 21 Oeste 37 Sudoeste 0 -- -- 90
2021-01-30 08:00:00 7.4 22 Oeste 48 Sudoeste 0 -- -- 91
2021-01-30 07:00:00 7.7 26 Oeste 49 Oeste 0.4 -- -- 91
2021-01-30 06:00:00 8.2 28 Oeste 46 Oeste 0.4 -- -- 94
2021-01-30 05:00:00 8 22 Sudoeste 59 Oeste 1 -- -- 88
2021-01-30 04:00:00 8.1 25 Oeste 48 Oeste 4.2 -- -- 92
2021-01-30 03:00:00 9.3 18 Sudoeste 47 Sudoeste 0 -- -- 88
2021-01-30 02:00:00 9.9 26 Sudoeste 48 Sudoeste 0 -- -- 80
2021-01-30 01:00:00 9.6 22 Sudoeste 44 Sudoeste 0 -- -- 85
2021-01-30 00:00:00 9.6 13 Sudoeste 38 Sudoeste 0 -- -- 89
2021-01-29 23:00:00 10 23 Sudoeste 36 Sur 0 -- -- 89
2021-01-29 22:00:00 8.5 10 Sudoeste 19 Sudoeste 0 -- -- 95
2021-01-29 21:00:00 7.8 2 Sudoeste 10 Sur 0 -- -- 89
2021-01-29 20:00:00 8.8 9 Sur 23 Sur 0 -- -- 89
2021-01-29 19:00:00 10.5 12 Sur 24 Sur 0 -- -- 84
2021-01-29 18:00:00 15.2 13 Sudoeste 30 Sudoeste 0 -- -- 69
2021-01-29 17:00:00 16.4 16 Oeste 26 Sudoeste 0 -- -- 62
2021-01-29 16:00:00 16.1 15 Sudoeste 23 Sudoeste 0 -- -- 67
2021-01-29 15:00:00 14.8 12 Sudoeste 17 Sudoeste 0 -- -- 72
2021-01-29 14:00:00 12.7 6 Noroeste 17 Sudoeste 0 -- -- 82
2021-01-29 13:00:00 11.6 9 Oeste 18 Sudoeste 0 -- -- 87
2021-01-29 12:00:00 10.4 14 Sudoeste 21 Oeste 0 -- -- 91
2021-01-29 11:00:00 10.1 11 Sudoeste 22 Oeste 0 -- -- 94
2021-01-29 10:00:00 9.5 11 Sudoeste 21 Sudoeste 0 -- -- 97
2021-01-29 09:00:00 9.1 6 Sudoeste 13 Sudoeste 0 -- -- 98
2021-01-29 08:00:00 9.1 8 Sur 11 Sur 0 -- -- 98
2021-01-29 07:00:00 9.1 7 Sur 10 Sudoeste 0 -- -- 98
2021-01-29 06:00:00 9.3 4 Sudoeste 26 Oeste 0 -- -- 98
2021-01-29 05:00:00 9.3 12 Sudoeste 22 Sudoeste 0 -- -- 98
2021-01-29 04:00:00 8.8 10 Sudoeste 19 Oeste 0 -- -- 97
2021-01-29 03:00:00 8.3 16 Oeste 27 Oeste 0 -- -- 95
2021-01-29 02:00:00 8.4 10 Oeste 17 Oeste 0 -- -- 92
2021-01-29 01:00:00 7.2 7 Sudoeste 10 Sudoeste 0 -- -- 91
2021-01-29 00:00:00 8 2 Sudoeste 15 Sur 0 -- -- 89
2021-01-28 23:00:00 8.2 12 Sur 17 Sudoeste 0 -- -- 89
2021-01-28 22:00:00 9.4 14 Sur 18 Sudoeste 0 -- -- 87
2021-01-28 21:00:00 9.8 9 Sur 14 Sudoeste 0 -- -- 86
2021-01-28 20:00:00 11.6 11 Sudoeste 16 Sur 0 -- -- 82
2021-01-28 19:00:00 13.8 8 Sur 16 Sur 0 -- -- 75
2021-01-28 18:00:00 17.2 11 Sudoeste 23 Sudoeste 0 -- -- 63
2021-01-28 17:00:00 18.4 14 Oeste 28 Sudoeste 0 -- -- 59
2021-01-28 16:00:00 18.1 20 Oeste 28 Sudoeste 0 -- -- 58
2021-01-28 15:00:00 17.9 16 Oeste 28 Sudoeste 0 -- -- 64
2021-01-28 14:00:00 16.9 15 Sudoeste 26 Oeste 0 -- -- 70
2021-01-28 13:00:00 16.1 14 Oeste 23 Sudoeste 0 -- -- 75
2021-01-28 12:00:00 14.9 17 Oeste 25 Sudoeste 0 -- -- 75
2021-01-28 11:00:00 12.7 10 Oeste 18 Sudoeste 0 -- -- 86
2021-01-28 10:00:00 8.2 0 Calma 6 Sur 0 -- -- 99
2021-01-28 09:00:00 5.9 5 Sur 7 Sudoeste 0 -- -- 97
2021-01-28 08:00:00 6.5 7 Sudoeste 9 Sudoeste 0 -- -- 96
2021-01-28 07:00:00 7.1 7 Sudoeste 12 Sur 0 -- -- 96
2021-01-28 06:00:00 7.2 9 Sur 14 Sudoeste 0 -- -- 98
2021-01-28 05:00:00 6.5 5 Sur 9 Sudoeste 0 -- -- 98
2021-01-28 04:00:00 6.2 4 Sudoeste 12 Sur 0 -- -- 97
2021-01-28 03:00:00 4.5 4 Sudeste 5 Sudeste 0 -- -- 96
2021-01-28 02:00:00 5.1 3 Sur 8 Sur 0 -- -- 96
2021-01-28 01:00:00 5 0 Calma 4 Sur 0 -- -- 94
2021-01-28 00:00:00 6.1 5 Sur 6 Sur 0 -- -- 95